This is the latest recevied weather packets stored in our database for station/object HB9CYX-13. If no packets are shown the sender has not sent any weather packets the latest 10 day(s).
| Time | Temp. | Humidity | Pressure | Rain* | Wind** | Luminosity | Snow |
|---|---|---|---|---|---|---|---|
| 1777773552 | 12.22° C | 76% | 1018.5 hPa | 0 mm | - | - | - |
| 1777772814 | 12.22° C | 75% | 1018.6 hPa | 0 mm | - | - | - |
| 1777772076 | 12.78° C | 75% | 1018.6 hPa | 0 mm | - | - | - |
| 1777771338 | 12.78° C | 73% | 1018.5 hPa | 0 mm | - | - | - |
| 1777770600 | 12.78° C | 73% | 1018.6 hPa | 0 mm | - | - | - |
| 1777769863 | 13.33° C | 73% | 1018.5 hPa | 0 mm | - | - | - |
| 1777769124 | 13.33° C | 72% | 1018.6 hPa | 0 mm | - | - | - |
| 1777768387 | 13.33° C | 72% | 1018.7 hPa | 0 mm | - | - | - |
| 1777767649 | 13.33° C | 72% | 1018.8 hPa | 0 mm | - | - | - |
| 1777766911 | 13.89° C | 70% | 1018.6 hPa | 0 mm | - | - | - |
| 1777766173 | 13.89° C | 70% | 1018.7 hPa | 0 mm | - | - | - |
| 1777765435 | 13.89° C | 69% | 1018.7 hPa | 0 mm | - | - | - |
| 1777764697 | 13.89° C | 69% | 1018.7 hPa | 0 mm | - | - | - |
| 1777763959 | 14.44° C | 67% | 1018.6 hPa | 0 mm | - | - | - |
| 1777763221 | 15° C | 66% | 1018.6 hPa | 0 mm | - | - | - |
| 1777762483 | 15.56° C | 64% | 1018.4 hPa | 0 mm | - | - | - |
| 1777761745 | 15.56° C | 63% | 1018.4 hPa | 0 mm | - | - | - |
| 1777761007 | 16.11° C | 62% | 1018.3 hPa | 0 mm | - | - | - |
| 1777760269 | 16.11° C | 61% | 1018.2 hPa | 0 mm | - | - | - |
| 1777759531 | 16.11° C | 60% | 1018.2 hPa | 0 mm | - | - | - |
| 1777758793 | 16.11° C | 59% | 1018.1 hPa | 0 mm | - | - | - |
| 1777758055 | 16.67° C | 58% | 1018 hPa | 0 mm | - | - | - |
| 1777757317 | 16.67° C | 56% | 1017.9 hPa | 0 mm | - | - | - |
| 1777756580 | 16.67° C | 57% | 1017.9 hPa | 0 mm | - | - | - |
| 1777755842 | 16.67° C | 58% | 1018 hPa | 0 mm | - | - | - |
* Rain latest hour (hover to see other rain measurements)
** Current wind speed in m/s (hover to see current wind gust speed)